createdAt,value
2022-10-05T00:00:27.572Z,12.98
2022-10-05T00:03:14.559Z,12.60
2022-10-05T00:05:42.187Z,12.23
2022-10-05T00:08:19.517Z,13.30
2022-10-05T00:10:47.017Z,11.38
2022-10-05T00:13:21.193Z,11.43
2022-10-05T00:15:49.220Z,11.27
2022-10-05T00:18:18.969Z,10.65
2022-10-05T00:20:47.403Z,10.80
2022-10-05T00:23:27.436Z,10.60
2022-10-05T00:25:54.726Z,11.50
2022-10-05T00:28:30.615Z,10.85
2022-10-05T00:30:59.248Z,10.82
2022-10-05T00:33:27.886Z,10.48
2022-10-05T00:35:55.528Z,10.52
2022-10-05T00:38:22.846Z,9.88
2022-10-05T00:41:05.547Z,9.57
2022-10-05T00:43:44.198Z,11.05
2022-10-05T00:46:27.404Z,9.85
2022-10-05T00:49:20.253Z,10.35
2022-10-05T00:52:11.472Z,9.05
2022-10-05T00:54:50.621Z,10.13
2022-10-05T00:57:33.890Z,12.73
2022-10-05T01:00:06.697Z,12.55
2022-10-05T01:02:48.046Z,12.90
2022-10-05T01:05:52.678Z,10.57
2022-10-05T01:08:41.769Z,10.77
2022-10-05T01:11:30.443Z,12.23
2022-10-05T01:14:31.443Z,11.65
2022-10-05T01:17:18.454Z,10.55
2022-10-05T01:20:03.760Z,9.95
2022-10-05T01:23:03.051Z,10.05
2022-10-05T01:25:54.322Z,10.48
2022-10-05T01:28:28.786Z,11.77
2022-10-05T01:31:15.682Z,10.13
2022-10-05T01:34:11.324Z,11.02
2022-10-05T01:36:49.093Z,12.27
2022-10-05T01:40:03.779Z,11.25
2022-10-05T01:42:58.495Z,12.00
2022-10-05T01:46:04.269Z,12.35
2022-10-05T01:48:34.336Z,12.93
2022-10-05T01:51:22.233Z,12.27
2022-10-05T01:53:59.951Z,10.77
2022-10-05T01:56:50.712Z,10.32
2022-10-05T01:59:56.812Z,10.70
2022-10-05T02:02:25.293Z,11.23
2022-10-05T02:05:14.065Z,9.60
2022-10-05T02:07:50.886Z,11.00
2022-10-05T02:10:30.672Z,11.32
2022-10-05T02:13:11.509Z,11.68
2022-10-05T02:16:03.045Z,11.27
2022-10-05T02:18:43.811Z,10.70
2022-10-05T02:21:11.090Z,11.98
2022-10-05T02:23:40.760Z,11.43
2022-10-05T02:26:11.016Z,10.43
2022-10-05T02:28:46.459Z,10.90
2022-10-05T02:31:18.081Z,10.20
2022-10-05T02:33:47.922Z,10.25
2022-10-05T02:36:29.555Z,10.02
2022-10-05T02:39:10.106Z,11.52
2022-10-05T02:41:40.719Z,11.77
2022-10-05T02:44:35.448Z,11.38
2022-10-05T02:47:14.902Z,12.30
2022-10-05T02:49:57.455Z,10.40
2022-10-05T02:52:49.844Z,10.20
2022-10-05T02:55:30.447Z,11.02
2022-10-05T02:58:09.963Z,11.93
2022-10-05T03:01:07.364Z,10.90
2022-10-05T03:03:41.733Z,11.77
2022-10-05T03:09:03.978Z,11.38
2022-10-05T03:12:04.520Z,12.80
2022-10-05T03:15:15.876Z,12.30
2022-10-05T03:18:01.649Z,11.48
2022-10-05T03:20:50.783Z,12.55
2022-10-05T03:23:44.649Z,14.30
2022-10-05T03:26:40.666Z,14.20
2022-10-05T03:29:32.428Z,14.60
2022-10-05T03:32:23.589Z,15.18
2022-10-05T03:35:03.468Z,24.02
2022-10-05T03:38:08.061Z,18.58
2022-10-05T03:40:43.026Z,28.65
2022-10-05T03:43:38.181Z,28.02
2022-10-05T03:46:11.494Z,30.08
2022-10-05T03:48:52.465Z,21.58
2022-10-05T03:51:39.843Z,20.38
2022-10-05T03:54:17.019Z,18.23
2022-10-05T03:56:51.731Z,22.38
2022-10-05T03:59:32.609Z,34.15
2022-10-05T04:02:05.349Z,31.58
2022-10-05T04:04:42.594Z,26.05
2022-10-05T04:07:23.728Z,18.98
2022-10-05T04:09:53.168Z,20.92
2022-10-05T04:12:37.198Z,17.45
2022-10-05T04:15:18.909Z,17.10
2022-10-05T04:17:51.816Z,17.27
2022-10-05T04:20:38.321Z,18.38
2022-10-05T04:23:16.698Z,17.80
2022-10-05T04:25:53.552Z,17.40
2022-10-05T04:28:32.419Z,16.65
2022-10-05T04:31:03.152Z,16.25
2022-10-05T04:33:32.152Z,18.08
2022-10-05T04:36:11.161Z,18.40
2022-10-05T04:39:14.207Z,20.48
2022-10-05T04:42:06.325Z,18.30
2022-10-05T04:44:43.221Z,19.40
2022-10-05T04:47:18.845Z,20.10
2022-10-05T04:50:07.088Z,19.65
2022-10-05T04:53:08.952Z,20.23
2022-10-05T04:55:38.394Z,19.55
2022-10-05T04:58:42.661Z,18.58
2022-10-05T05:01:45.985Z,18.67
2022-10-05T05:04:51.470Z,16.55
2022-10-05T05:07:25.249Z,18.83
2022-10-05T05:10:15.736Z,17.60
2022-10-05T05:13:13.871Z,18.02
2022-10-05T05:15:46.613Z,19.92
2022-10-05T05:18:26.095Z,19.65
2022-10-05T05:21:17.223Z,19.33
2022-10-05T05:23:53.709Z,16.13
2022-10-05T05:26:38.763Z,17.73
2022-10-05T05:29:45.791Z,15.30
2022-10-05T05:32:33.429Z,16.33
2022-10-05T05:35:22.589Z,15.70
2022-10-05T05:38:07.701Z,14.73
2022-10-05T05:40:56.866Z,14.80
2022-10-05T05:43:57.798Z,15.38
2022-10-05T05:47:02.179Z,14.80
2022-10-05T05:49:51.230Z,14.15
2022-10-05T05:52:38.291Z,14.50
2022-10-05T05:55:19.685Z,13.82
2022-10-05T05:57:56.474Z,12.52
2022-10-05T06:00:42.714Z,13.02
2022-10-05T06:03:20.980Z,14.07
2022-10-05T06:05:54.370Z,13.93
2022-10-05T06:08:28.933Z,13.10
2022-10-05T06:11:10.218Z,15.77
2022-10-05T06:13:42.208Z,12.38
2022-10-05T06:16:33.727Z,14.40
2022-10-05T06:19:13.226Z,12.43
2022-10-05T06:21:45.119Z,14.07
2022-10-05T06:24:26.770Z,15.00
2022-10-05T06:27:39.540Z,17.02
2022-10-05T06:30:13.551Z,13.73
2022-10-05T06:32:50.362Z,12.57
2022-10-05T06:35:36.624Z,13.43
2022-10-05T06:38:52.670Z,12.05
2022-10-05T06:41:50.291Z,12.27
2022-10-05T06:44:37.646Z,12.82
2022-10-05T06:48:02.827Z,14.40
2022-10-05T06:50:54.119Z,11.00
2022-10-05T06:53:49.680Z,11.55
2022-10-05T06:56:24.136Z,25.35
2022-10-05T06:59:05.004Z,21.45
2022-10-05T07:01:58.201Z,26.27
2022-10-05T07:04:39.319Z,25.70
2022-10-05T07:07:35.919Z,25.33
2022-10-05T07:10:55.151Z,18.33
2022-10-05T07:30:20.835Z,12.65
2022-10-05T07:34:00.258Z,11.18
2022-10-05T08:11:34.805Z,9.90
2022-10-05T08:43:32.920Z,11.20
2022-10-05T08:46:56.942Z,10.88
2022-10-05T08:50:22.058Z,10.07
2022-10-05T08:54:33.030Z,9.85
2022-10-05T08:57:29.048Z,9.65
2022-10-05T09:00:03.482Z,10.30
2022-10-05T09:03:16.186Z,10.20
2022-10-05T09:06:02.699Z,8.77
2022-10-05T09:08:58.751Z,8.85
2022-10-05T09:11:53.384Z,9.60
2022-10-05T09:15:27.118Z,13.18
2022-10-05T09:18:15.099Z,11.60
2022-10-05T09:20:59.111Z,12.48
2022-10-05T09:23:42.867Z,9.88
2022-10-05T09:26:10.329Z,7.82
2022-10-05T09:29:15.072Z,7.35
2022-10-05T09:31:57.273Z,8.60
2022-10-05T09:34:59.039Z,6.20
2022-10-05T09:37:59.677Z,12.55
2022-10-05T09:40:59.715Z,16.98
2022-10-05T09:43:54.339Z,9.02
2022-10-05T09:46:45.942Z,8.20
2022-10-05T09:49:40.349Z,12.98
2022-10-05T09:52:23.472Z,10.95
2022-10-05T09:55:27.834Z,10.52
2022-10-05T09:58:00.387Z,22.88
2022-10-05T10:00:50.077Z,12.60
2022-10-05T10:04:00.025Z,8.15
2022-10-05T10:06:46.549Z,9.48
2022-10-05T10:09:19.866Z,9.35
2022-10-05T10:12:02.076Z,9.05
2022-10-05T10:15:03.141Z,13.57
2022-10-05T10:18:03.604Z,9.15
2022-10-05T10:20:43.149Z,8.70
2022-10-05T10:23:23.456Z,7.65
2022-10-05T10:26:08.566Z,12.50
2022-10-05T10:28:44.346Z,12.93
2022-10-05T10:31:49.820Z,10.55
2022-10-05T10:37:02.244Z,10.52
2022-10-05T10:39:29.435Z,15.18
2022-10-05T10:41:59.597Z,24.83
2022-10-05T10:45:11.148Z,15.55
2022-10-05T10:47:47.131Z,51.13
2022-10-05T10:50:33.949Z,21.90
2022-10-05T10:53:19.818Z,26.92
2022-10-05T10:56:22.536Z,13.23
2022-10-05T10:59:20.192Z,10.77
2022-10-05T11:02:38.557Z,8.25
2022-10-05T11:05:38.721Z,5.93
2022-10-05T11:08:46.498Z,9.63
2022-10-05T11:11:36.251Z,7.53
2022-10-05T11:14:35.611Z,11.15
2022-10-05T11:17:25.744Z,6.50
2022-10-05T11:20:09.434Z,10.00
2022-10-05T11:22:55.487Z,9.63
2022-10-05T11:25:44.241Z,4.47
2022-10-05T11:28:29.414Z,6.03
2022-10-05T11:31:08.012Z,5.90
2022-10-05T11:33:38.229Z,5.80
2022-10-05T11:36:20.274Z,5.50
2022-10-05T11:39:10.191Z,5.88
2022-10-05T11:42:05.888Z,5.75
2022-10-05T11:44:54.890Z,8.20
2022-10-05T11:47:37.808Z,9.68
2022-10-05T11:50:32.526Z,6.97
2022-10-05T11:53:13.843Z,6.00
2022-10-05T11:56:23.123Z,6.32
2022-10-05T11:59:26.533Z,5.57
2022-10-05T12:02:43.888Z,6.45
2022-10-05T12:05:43.315Z,7.40
2022-10-05T12:08:37.060Z,5.82
2022-10-05T12:11:04.093Z,6.97
2022-10-05T12:13:31.243Z,7.60
2022-10-05T12:16:04.780Z,8.10
2022-10-05T12:18:31.701Z,8.88
2022-10-05T12:21:04.825Z,6.80
2022-10-05T12:24:14.390Z,8.10
2022-10-05T12:26:53.061Z,11.70
2022-10-05T12:29:26.833Z,10.60
2022-10-05T12:32:21.907Z,6.10
2022-10-05T12:35:07.804Z,8.67
2022-10-05T12:38:05.156Z,8.93
2022-10-05T12:40:51.662Z,6.80
2022-10-05T12:43:34.785Z,8.27
2022-10-05T12:46:20.510Z,6.18
2022-10-05T12:49:01.857Z,12.65
2022-10-05T12:51:55.886Z,23.00
2022-10-05T12:54:54.228Z,47.45
2022-10-05T12:58:05.507Z,45.60
2022-10-05T13:00:38.431Z,43.88
2022-10-05T13:03:17.905Z,66.03
2022-10-05T13:06:08.006Z,35.13
2022-10-05T13:08:59.455Z,12.25
2022-10-05T13:11:47.888Z,9.13
2022-10-05T13:14:47.285Z,10.63
2022-10-05T13:17:33.711Z,9.05
2022-10-05T13:20:12.312Z,10.93
2022-10-05T13:22:45.055Z,19.20
2022-10-05T13:25:32.665Z,10.43
2022-10-05T13:28:10.618Z,11.65
2022-10-05T13:30:41.499Z,11.25
2022-10-05T13:33:21.940Z,9.02
2022-10-05T13:36:02.061Z,8.23
2022-10-05T13:38:53.314Z,12.50
2022-10-05T13:41:35.946Z,7.20
2022-10-05T13:44:23.421Z,7.95
2022-10-05T13:47:05.726Z,6.97
2022-10-05T13:49:49.316Z,7.65
2022-10-05T13:52:42.197Z,8.65
2022-10-05T13:55:34.702Z,8.20
2022-10-05T13:58:13.891Z,6.50
2022-10-05T14:00:50.098Z,6.72
2022-10-05T14:03:37.474Z,8.40
2022-10-05T14:06:32.593Z,6.35
2022-10-05T14:09:00.016Z,6.53
2022-10-05T14:11:32.516Z,8.10
2022-10-05T14:14:26.521Z,8.80
2022-10-05T14:17:00.198Z,12.18
2022-10-05T14:19:32.441Z,11.25
2022-10-05T14:22:11.960Z,19.00
2022-10-05T14:25:10.526Z,22.77
2022-10-05T14:28:10.248Z,13.60
2022-10-05T14:30:37.609Z,10.20
2022-10-05T14:33:07.121Z,14.15
2022-10-05T14:35:50.628Z,10.02
2022-10-05T14:41:01.924Z,9.55
2022-10-05T14:43:29.852Z,14.23
2022-10-05T14:45:59.471Z,14.90
2022-10-05T14:48:29.498Z,28.08
2022-10-05T14:50:59.564Z,38.45
2022-10-05T14:53:40.124Z,24.63
2022-10-05T14:56:33.158Z,29.35
2022-10-05T14:59:04.268Z,26.85
2022-10-05T15:01:35.888Z,14.18
2022-10-05T15:04:31.915Z,16.25
2022-10-05T15:07:27.417Z,13.73
2022-10-05T15:10:06.412Z,14.07
2022-10-05T15:12:48.201Z,15.07
2022-10-05T15:15:39.684Z,16.45
2022-10-05T15:18:27.226Z,26.25
2022-10-05T15:21:12.060Z,33.55
2022-10-05T15:24:11.876Z,31.45
2022-10-05T15:27:01.131Z,32.97
2022-10-05T15:30:03.275Z,41.38
2022-10-05T15:32:45.804Z,40.65
2022-10-05T15:35:42.346Z,40.03
2022-10-05T15:38:21.308Z,40.92
2022-10-05T15:41:14.806Z,44.83
2022-10-05T15:43:50.677Z,51.25
2022-10-05T15:46:41.415Z,55.53
2022-10-05T15:49:57.265Z,69.30
2022-10-05T15:52:56.260Z,40.60
2022-10-05T15:55:38.385Z,36.97
2022-10-05T15:58:31.301Z,67.50
2022-10-05T16:01:11.528Z,47.45
2022-10-05T16:03:53.856Z,38.53
2022-10-05T16:07:05.499Z,32.95
2022-10-05T16:10:03.311Z,42.22
2022-10-05T16:12:53.079Z,33.08
2022-10-05T16:15:36.042Z,35.15
2022-10-05T16:18:47.916Z,32.75
2022-10-05T16:21:30.870Z,43.67
2022-10-05T16:24:21.232Z,41.70
2022-10-05T16:27:28.887Z,32.28
2022-10-05T16:30:04.995Z,19.90
2022-10-05T16:32:46.780Z,24.92
2022-10-05T16:35:59.509Z,33.72
2022-10-05T16:38:40.438Z,34.00
2022-10-05T16:41:27.430Z,37.95
2022-10-05T16:44:15.535Z,35.53
2022-10-05T16:47:11.765Z,36.33
2022-10-05T16:50:08.115Z,34.80
2022-10-05T16:52:40.569Z,35.08
2022-10-05T16:55:20.042Z,34.58
2022-10-05T16:57:55.695Z,42.15
2022-10-05T17:00:56.031Z,37.70
2022-10-05T17:03:57.145Z,29.35
2022-10-05T17:06:30.123Z,31.98
2022-10-05T17:09:25.486Z,40.58
2022-10-05T17:12:20.285Z,35.63
2022-10-05T17:14:53.145Z,31.10
2022-10-05T17:17:49.153Z,27.95
2022-10-05T17:20:40.186Z,22.83
2022-10-05T17:23:29.356Z,24.85
2022-10-05T17:26:22.906Z,27.42
2022-10-05T17:29:08.918Z,33.15
2022-10-05T17:31:59.902Z,31.38
2022-10-05T17:34:34.837Z,27.30
2022-10-05T17:37:38.019Z,33.03
2022-10-05T17:40:35.024Z,28.48
2022-10-05T17:43:24.591Z,25.02
2022-10-05T17:45:57.985Z,19.63
2022-10-05T17:48:44.113Z,25.27
2022-10-05T17:51:48.499Z,28.98
2022-10-05T17:54:49.106Z,18.85
2022-10-05T17:57:21.432Z,18.48
2022-10-05T17:59:57.291Z,15.65
2022-10-05T18:02:36.802Z,22.23
2022-10-05T18:05:05.049Z,20.05
2022-10-05T18:07:36.646Z,29.83
2022-10-05T18:10:14.810Z,19.88
2022-10-05T18:13:18.093Z,19.65
2022-10-05T18:15:48.766Z,22.27
2022-10-05T18:18:44.835Z,18.10
2022-10-05T18:21:14.833Z,18.60
2022-10-05T18:24:02.286Z,19.27
2022-10-05T18:27:11.182Z,19.60
2022-10-05T18:30:04.944Z,17.52
2022-10-05T18:32:49.983Z,14.52
2022-10-05T18:38:17.589Z,13.57
2022-10-05T18:41:03.723Z,14.20
2022-10-05T18:43:35.965Z,18.00
2022-10-05T18:46:15.097Z,13.70
2022-10-05T18:49:03.864Z,14.98
2022-10-05T18:51:52.810Z,14.73
2022-10-05T18:54:57.276Z,13.10
2022-10-05T18:57:40.671Z,15.48
2022-10-05T19:00:15.299Z,16.63
2022-10-05T19:03:11.090Z,13.27
2022-10-05T19:05:50.128Z,15.38
2022-10-05T19:08:31.046Z,12.68
2022-10-05T19:11:17.987Z,13.02
2022-10-05T19:13:51.206Z,11.68
2022-10-05T19:16:38.601Z,9.65
2022-10-05T19:19:30.701Z,10.30
2022-10-05T19:22:31.256Z,12.07
2022-10-05T19:25:05.315Z,12.07
2022-10-05T19:27:55.509Z,12.38
2022-10-05T19:30:43.970Z,13.63
2022-10-05T19:33:36.045Z,13.30
2022-10-05T19:36:40.280Z,13.45
2022-10-05T19:39:12.857Z,13.93
2022-10-05T19:41:40.814Z,14.30
2022-10-05T19:44:35.350Z,12.40
2022-10-05T19:47:14.923Z,15.20
2022-10-05T19:49:55.348Z,14.40
2022-10-05T19:52:25.222Z,13.90
2022-10-05T19:55:20.050Z,19.02
2022-10-05T19:57:49.613Z,16.52
2022-10-05T20:00:31.416Z,13.52
2022-10-05T20:03:18.876Z,17.25
2022-10-05T20:05:46.330Z,18.17
2022-10-05T20:08:18.794Z,18.23
2022-10-05T20:11:13.487Z,14.88
2022-10-05T20:13:46.775Z,17.50
2022-10-05T20:16:57.557Z,14.85
2022-10-05T20:19:50.711Z,13.90
2022-10-05T20:22:39.580Z,14.07
2022-10-05T20:25:28.797Z,13.15
2022-10-05T20:27:57.439Z,14.60
2022-10-05T20:30:29.001Z,11.73
2022-10-05T20:33:01.604Z,12.07
2022-10-05T20:35:30.831Z,13.20
2022-10-05T20:38:00.268Z,12.30
2022-10-05T20:40:29.282Z,11.38
2022-10-05T20:42:57.762Z,12.68
2022-10-05T20:45:25.153Z,12.95
2022-10-05T20:47:52.473Z,12.85
2022-10-05T20:50:21.107Z,11.82
2022-10-05T20:52:48.340Z,12.40
2022-10-05T20:55:18.510Z,11.75
2022-10-05T20:57:46.209Z,11.77
2022-10-05T21:00:13.955Z,11.30
2022-10-05T21:02:40.971Z,13.05
2022-10-05T21:05:08.992Z,12.13
2022-10-05T21:07:36.023Z,12.95
2022-10-05T21:10:03.942Z,11.75
2022-10-05T21:12:34.015Z,11.73
2022-10-05T21:15:01.590Z,11.13
2022-10-05T21:17:28.599Z,13.05
2022-10-05T21:19:55.860Z,11.77
2022-10-05T21:22:22.866Z,11.73
2022-10-05T21:24:49.977Z,12.10
2022-10-05T21:27:17.327Z,12.13
2022-10-05T21:29:45.374Z,10.27
2022-10-05T21:32:12.406Z,9.93
2022-10-05T21:34:40.990Z,11.52
2022-10-05T21:37:09.000Z,10.23
2022-10-05T21:39:36.750Z,10.32
2022-10-05T21:42:04.462Z,11.20
2022-10-05T21:44:31.413Z,11.35
2022-10-05T21:46:58.529Z,11.02
2022-10-05T21:49:27.071Z,10.40
2022-10-05T21:51:54.352Z,11.05
2022-10-05T21:54:22.661Z,11.43
2022-10-05T21:56:52.577Z,10.43
2022-10-05T21:59:22.540Z,10.68
2022-10-05T22:01:49.622Z,10.57
2022-10-05T22:04:17.117Z,10.93
2022-10-05T22:06:44.262Z,11.55
2022-10-05T22:09:12.101Z,11.30
2022-10-05T22:11:39.450Z,11.75
2022-10-05T22:14:06.673Z,10.90
2022-10-05T22:16:38.165Z,11.45
2022-10-05T22:19:10.612Z,11.18
2022-10-05T22:21:41.550Z,11.02
2022-10-05T22:24:11.463Z,12.63
2022-10-05T22:26:40.192Z,11.50
2022-10-05T22:29:07.296Z,11.48
2022-10-05T22:31:34.665Z,10.85
2022-10-05T22:34:01.953Z,11.35
2022-10-05T22:36:29.215Z,10.05
2022-10-05T22:38:56.450Z,11.13
2022-10-05T22:41:23.655Z,10.48
2022-10-05T22:43:51.335Z,10.50
2022-10-05T22:46:18.739Z,10.77
2022-10-05T22:48:45.961Z,10.65
2022-10-05T22:51:12.951Z,10.38
2022-10-05T22:53:40.337Z,10.82
2022-10-05T22:56:13.181Z,9.30
2022-10-05T22:58:41.557Z,9.75
2022-10-05T23:01:12.184Z,10.75
2022-10-05T23:03:39.276Z,10.55
2022-10-05T23:06:12.233Z,11.00
2022-10-05T23:08:40.934Z,10.57
2022-10-05T23:11:21.297Z,10.45
2022-10-05T23:13:48.608Z,10.73
2022-10-05T23:16:18.559Z,10.70
2022-10-05T23:18:49.063Z,11.18
2022-10-05T23:21:17.151Z,10.60
2022-10-05T23:23:47.444Z,10.98
2022-10-05T23:26:16.023Z,10.10
2022-10-05T23:28:46.627Z,10.10
2022-10-05T23:31:19.583Z,11.38
2022-10-05T23:33:47.066Z,11.00
2022-10-05T23:36:19.351Z,11.20
2022-10-05T23:38:46.866Z,11.10
2022-10-05T23:41:16.011Z,11.68
2022-10-05T23:43:43.723Z,10.55
2022-10-05T23:46:11.777Z,11.35
2022-10-05T23:48:39.383Z,11.23
2022-10-05T23:51:07.919Z,11.60
2022-10-05T23:53:35.247Z,12.00
2022-10-05T23:56:02.513Z,11.00
2022-10-05T23:58:30.038Z,10.13
